createdAt,value
2019-05-02T00:01:03.896Z,101211.33
2019-05-02T00:03:35.961Z,101203.52
2019-05-02T00:06:07.381Z,101206.79
2019-05-02T00:08:34.470Z,101192.87
2019-05-02T00:11:03.478Z,101198.50
2019-05-02T00:13:32.499Z,101194.19
2019-05-02T00:16:01.267Z,101196.31
2019-05-02T00:18:31.926Z,101193.08
2019-05-02T00:21:01.322Z,101195.92
2019-05-02T00:23:31.195Z,101191.33
2019-05-02T00:25:59.652Z,101189.63
2019-05-02T00:28:28.244Z,101189.92
2019-05-02T00:30:56.934Z,101191.55
2019-05-02T00:33:29.308Z,101187.03
2019-05-02T00:35:55.775Z,101191.53
2019-05-02T00:38:24.418Z,101188.58
2019-05-02T00:40:57.504Z,101186.17
2019-05-02T00:43:23.387Z,101186.30
2019-05-02T00:45:55.011Z,101179.80
2019-05-02T00:48:39.298Z,101181.28
2019-05-02T00:51:07.959Z,101180.87
2019-05-02T00:53:36.523Z,101176.14
2019-05-02T00:56:08.976Z,101174.15
2019-05-02T00:58:35.387Z,101171.38
2019-05-02T01:01:29.544Z,101170.44
2019-05-02T01:03:56.451Z,101170.19
2019-05-02T01:06:25.038Z,101160.70
2019-05-02T01:08:53.603Z,101164.19
2019-05-02T01:11:22.187Z,101159.20
2019-05-02T01:13:55.696Z,101158.80
2019-05-02T01:16:22.113Z,101155.50
2019-05-02T01:18:50.702Z,101159.41
2019-05-02T01:21:19.358Z,101156.05
2019-05-02T01:23:47.951Z,101154.30
2019-05-02T01:26:16.538Z,101152.47
2019-05-02T01:29:02.074Z,101151.48
2019-05-02T01:31:32.186Z,101157.54
2019-05-02T01:34:18.030Z,101148.40
2019-05-02T01:36:55.437Z,101153.57
2019-05-02T01:39:24.074Z,101145.16
2019-05-02T01:41:52.679Z,101141.90
2019-05-02T01:44:21.301Z,101146.02
2019-05-02T01:46:54.110Z,101136.40
2019-05-02T01:49:21.893Z,101133.53
2019-05-02T01:51:50.681Z,101131.78
2019-05-02T01:54:19.234Z,101135.56
2019-05-02T01:56:47.856Z,101136.42
2019-05-02T01:59:16.474Z,101138.63
2019-05-02T02:01:45.015Z,101139.69
2019-05-02T02:04:16.240Z,101138.41
2019-05-02T02:06:45.144Z,101133.37
2019-05-02T02:09:13.866Z,101130.73
2019-05-02T02:11:42.492Z,101124.63
2019-05-02T02:14:12.779Z,101126.15
2019-05-02T02:16:41.454Z,101128.55
2019-05-02T02:19:18.210Z,101127.65
2019-05-02T02:21:51.487Z,101132.14
2019-05-02T02:24:28.048Z,101131.34
2019-05-02T02:26:56.755Z,101124.14
2019-05-02T02:29:25.279Z,101130.10
2019-05-02T02:31:53.913Z,101124.00
2019-05-02T02:34:29.085Z,101129.68
2019-05-02T02:36:52.805Z,101128.08
2019-05-02T02:39:21.420Z,101126.54
2019-05-02T02:41:52.191Z,101120.25
2019-05-02T02:44:33.717Z,101119.77
2019-05-02T02:47:01.236Z,101123.47
2019-05-02T02:49:29.766Z,101118.97
2019-05-02T02:52:04.598Z,101115.03
2019-05-02T02:54:28.693Z,101113.13
2019-05-02T02:56:57.255Z,101114.89
2019-05-02T02:59:26.820Z,101110.40
2019-05-02T03:01:56.205Z,101105.78
2019-05-02T03:04:24.778Z,101112.30
2019-05-02T03:06:53.391Z,101109.97
2019-05-02T03:09:26.689Z,101106.41
2019-05-02T03:12:10.266Z,101102.35
2019-05-02T03:14:41.143Z,101103.08
2019-05-02T03:17:11.459Z,101096.70
2019-05-02T03:19:40.078Z,101093.38
2019-05-02T03:22:08.600Z,101089.20
2019-05-02T03:24:44.259Z,101093.88
2019-05-02T03:27:07.629Z,101090.72
2019-05-02T03:29:41.055Z,101092.58
2019-05-02T03:32:26.001Z,101092.95
2019-05-02T03:34:47.436Z,101092.95
2019-05-02T03:37:10.677Z,101094.91
2019-05-02T03:39:38.413Z,101096.53
2019-05-02T03:42:07.093Z,101097.81
2019-05-02T03:44:35.728Z,101102.17
2019-05-02T03:47:04.990Z,101099.03
2019-05-02T03:49:33.937Z,101099.64
2019-05-02T03:52:05.758Z,101085.26
2019-05-02T03:54:33.224Z,101093.55
2019-05-02T03:57:01.835Z,101090.31
2019-05-02T03:59:38.956Z,101087.47
2019-05-02T04:02:00.971Z,101088.46
2019-05-02T04:04:30.345Z,101084.37
2019-05-02T04:07:00.967Z,101078.16
2019-05-02T04:09:42.229Z,101076.12
2019-05-02T04:12:11.498Z,101076.55
2019-05-02T04:14:38.574Z,101071.05
2019-05-02T04:17:09.294Z,101068.17
2019-05-02T04:19:38.019Z,101075.22
2019-05-02T04:22:08.930Z,101072.22
2019-05-02T04:24:37.032Z,101078.56
2019-05-02T04:27:05.716Z,101077.77
2019-05-02T04:29:34.382Z,101076.56
2019-05-02T04:32:10.798Z,101073.17
2019-05-02T04:34:33.325Z,101075.09
2019-05-02T04:37:03.998Z,101079.47
2019-05-02T04:39:32.115Z,101078.91
2019-05-02T04:42:05.299Z,101082.72
2019-05-02T04:44:40.984Z,101074.39
2019-05-02T04:47:13.933Z,101070.36
2019-05-02T04:49:35.774Z,101066.09
2019-05-02T04:52:10.476Z,101057.39
2019-05-02T04:54:32.897Z,101057.39
2019-05-02T04:57:02.490Z,101057.47
2019-05-02T04:59:33.276Z,101057.06
2019-05-02T05:02:01.802Z,101064.08
2019-05-02T05:04:33.220Z,101059.16
2019-05-02T05:07:01.321Z,101066.59
2019-05-02T05:09:30.105Z,101070.81
2019-05-02T05:12:02.419Z,101074.95
2019-05-02T05:14:31.347Z,101069.94
2019-05-02T05:16:59.161Z,101076.50
2019-05-02T05:19:32.443Z,101071.53
2019-05-02T05:22:04.377Z,101070.23
2019-05-02T05:24:37.397Z,101071.81
2019-05-02T05:27:02.841Z,101074.31
2019-05-02T05:29:32.113Z,101074.88
2019-05-02T05:32:05.289Z,101070.80
2019-05-02T05:34:32.749Z,101072.41
2019-05-02T05:37:03.528Z,101070.80
2019-05-02T05:39:31.586Z,101075.57
2019-05-02T05:42:00.189Z,101068.25
2019-05-02T05:44:32.448Z,101073.08
2019-05-02T05:46:59.019Z,101064.97
2019-05-02T05:49:28.295Z,101064.56
2019-05-02T05:52:02.302Z,101066.16
2019-05-02T05:54:28.263Z,101063.89
2019-05-02T05:56:57.391Z,101066.05
2019-05-02T05:59:30.375Z,101068.69
2019-05-02T06:01:57.915Z,101070.55
2019-05-02T06:04:32.632Z,101074.67
2019-05-02T06:07:01.602Z,101072.20
2019-05-02T06:09:31.194Z,101064.37
2019-05-02T06:11:57.552Z,101062.16
2019-05-02T06:14:26.336Z,101063.70
2019-05-02T06:16:55.196Z,101072.34
2019-05-02T06:19:23.830Z,101065.39
2019-05-02T06:21:52.505Z,101058.94
2019-05-02T06:24:20.979Z,101054.19
2019-05-02T06:26:51.738Z,101050.83
2019-05-02T06:29:20.927Z,101045.31
2019-05-02T06:31:49.718Z,101052.91
2019-05-02T06:34:18.349Z,101043.39
2019-05-02T06:36:46.983Z,101037.68
2019-05-02T06:39:15.633Z,101040.16
2019-05-02T06:41:44.217Z,101040.16
2019-05-02T06:44:18.564Z,101040.88
2019-05-02T06:46:44.404Z,101037.67
2019-05-02T06:49:13.785Z,101035.83
2019-05-02T06:51:42.423Z,101034.13
2019-05-02T06:54:10.964Z,101034.61
2019-05-02T06:56:43.154Z,101040.95
2019-05-02T06:59:13.164Z,101040.20
2019-05-02T07:01:40.141Z,101043.05
2019-05-02T07:04:09.066Z,101044.75
2019-05-02T07:06:55.934Z,101047.88
2019-05-02T07:09:08.149Z,101038.36
2019-05-02T07:11:39.029Z,101036.34
2019-05-02T07:14:13.478Z,101043.34
2019-05-02T07:16:42.502Z,101041.27
2019-05-02T07:19:12.791Z,101045.35
2019-05-02T07:21:41.337Z,101042.22
2019-05-02T07:24:09.970Z,101043.17
2019-05-02T07:26:38.591Z,101038.70
2019-05-02T07:29:07.208Z,101044.33
2019-05-02T07:31:35.975Z,101041.03
2019-05-02T07:34:08.080Z,101041.27
2019-05-02T07:36:36.366Z,101046.43
2019-05-02T07:39:10.717Z,101044.61
2019-05-02T07:41:39.581Z,101049.40
2019-05-02T07:44:08.137Z,101045.27
2019-05-02T07:46:36.781Z,101046.97
2019-05-02T07:49:06.132Z,101038.53
2019-05-02T07:51:35.123Z,101044.76
2019-05-02T07:54:03.857Z,101041.17
2019-05-02T07:56:32.408Z,101047.98
2019-05-02T07:59:01.028Z,101044.44
2019-05-02T08:01:29.642Z,101049.33
2019-05-02T08:04:02.784Z,101046.67
2019-05-02T08:06:35.264Z,101050.16
2019-05-02T08:09:01.674Z,101044.88
2019-05-02T08:11:32.206Z,101048.25
2019-05-02T08:14:00.649Z,101051.44
2019-05-02T08:16:29.418Z,101042.12
2019-05-02T08:19:01.279Z,101036.43
2019-05-02T08:21:32.632Z,101040.22
2019-05-02T08:24:02.336Z,101047.55
2019-05-02T08:26:30.552Z,101049.88
2019-05-02T08:29:00.802Z,101036.56
2019-05-02T08:31:30.248Z,101038.54
2019-05-02T08:33:58.981Z,101035.38
2019-05-02T08:36:27.731Z,101034.69
2019-05-02T08:38:56.346Z,101028.09
2019-05-02T08:41:24.875Z,101025.05
2019-05-02T08:43:53.500Z,101031.66
2019-05-02T08:46:22.067Z,101027.72
2019-05-02T08:48:50.944Z,101021.77
2019-05-02T08:51:19.553Z,101024.45
2019-05-02T08:53:52.153Z,101035.55
2019-05-02T08:56:21.471Z,101033.17
2019-05-02T08:58:49.814Z,101018.10
2019-05-02T09:01:18.902Z,101026.89
2019-05-02T09:03:55.248Z,101028.25
2019-05-02T09:06:22.541Z,101022.20
2019-05-02T09:08:51.436Z,101020.37
2019-05-02T09:11:18.448Z,101021.39
2019-05-02T09:13:46.966Z,101015.77
2019-05-02T09:16:15.616Z,101012.51
2019-05-02T09:18:50.677Z,101005.67
2019-05-02T09:21:15.415Z,101005.19
2019-05-02T09:23:44.098Z,100996.40
2019-05-02T09:26:12.726Z,100990.97
2019-05-02T09:28:42.275Z,100981.53
2019-05-02T09:31:12.637Z,100981.95
2019-05-02T09:33:45.598Z,100979.35
2019-05-02T09:36:11.972Z,100967.86
2019-05-02T09:38:42.476Z,100974.31
2019-05-02T09:41:18.803Z,100969.37
2019-05-02T09:43:42.642Z,100963.97
2019-05-02T09:46:12.953Z,100965.77
2019-05-02T09:48:42.654Z,100965.77
2019-05-02T09:51:17.226Z,100956.53
2019-05-02T09:53:43.219Z,100956.00
2019-05-02T09:56:12.717Z,100951.63
2019-05-02T09:58:42.145Z,100953.59
2019-05-02T10:01:15.184Z,100941.92
2019-05-02T10:03:43.751Z,100943.84
2019-05-02T10:06:15.633Z,100939.98
2019-05-02T10:08:45.499Z,100933.73
2019-05-02T10:11:17.074Z,100932.91
2019-05-02T10:13:43.425Z,100925.30
2019-05-02T10:16:12.296Z,100927.31
2019-05-02T10:18:43.148Z,100916.53
2019-05-02T10:21:13.467Z,100919.09
2019-05-02T10:23:42.714Z,100916.94
2019-05-02T10:26:14.704Z,100917.48
2019-05-02T10:28:49.594Z,100915.15
2019-05-02T10:31:12.788Z,100912.39
2019-05-02T10:33:42.034Z,100911.83
2019-05-02T10:36:13.713Z,100902.19
2019-05-02T10:38:42.717Z,100895.06
2019-05-02T10:41:12.061Z,100887.84
2019-05-02T10:43:42.344Z,100896.17
2019-05-02T10:46:23.010Z,100891.81
2019-05-02T10:48:53.290Z,100886.53
2019-05-02T10:51:26.423Z,100885.84
2019-05-02T10:53:56.504Z,100882.82
2019-05-02T10:56:25.270Z,100874.45
2019-05-02T10:58:53.847Z,100875.66
2019-05-02T11:01:23.751Z,100872.81
2019-05-02T11:03:53.989Z,100863.30
2019-05-02T11:06:22.624Z,100859.43
2019-05-02T11:08:52.483Z,100855.62
2019-05-02T11:11:22.022Z,100876.30
2019-05-02T11:14:00.790Z,100866.12
2019-05-02T11:16:46.121Z,100859.23
2019-05-02T11:19:31.864Z,100851.68
2019-05-02T11:22:02.834Z,100853.83
2019-05-02T11:24:31.997Z,100848.59
2019-05-02T11:27:02.180Z,100847.55
2019-05-02T11:29:32.221Z,100845.29
2019-05-02T11:32:02.776Z,100845.22
2019-05-02T11:34:32.668Z,100842.05
2019-05-02T11:37:01.829Z,100840.41
2019-05-02T11:39:40.848Z,100834.42
2019-05-02T11:42:02.085Z,100841.27
2019-05-02T11:44:32.692Z,100839.71
2019-05-02T11:47:01.978Z,100835.08
2019-05-02T11:49:31.975Z,100819.48
2019-05-02T11:52:03.875Z,100820.02
2019-05-02T11:54:31.985Z,100814.38
2019-05-02T11:57:02.214Z,100811.47
2019-05-02T11:59:31.982Z,100810.30
2019-05-02T12:02:09.484Z,100809.95
2019-05-02T12:04:38.474Z,100812.40
2019-05-02T12:07:07.813Z,100800.59
2019-05-02T12:09:36.421Z,100804.25
2019-05-02T12:12:05.071Z,100802.17
2019-05-02T12:14:36.339Z,100798.48
2019-05-02T12:17:04.023Z,100792.08
2019-05-02T12:19:32.689Z,100794.11
2019-05-02T12:22:02.612Z,100798.25
2019-05-02T12:24:31.963Z,100792.05
2019-05-02T12:27:02.382Z,100797.62
2019-05-02T12:29:30.923Z,100785.77
2019-05-02T12:31:59.524Z,100790.47
2019-05-02T12:34:28.160Z,100785.85
2019-05-02T12:36:56.760Z,100784.91
2019-05-02T12:39:25.334Z,100774.72
2019-05-02T12:41:54.501Z,100771.05
2019-05-02T12:44:23.337Z,100764.38
2019-05-02T12:46:51.972Z,100771.23
2019-05-02T12:49:25.285Z,100762.98
2019-05-02T12:51:52.439Z,100756.18
2019-05-02T12:54:21.932Z,100760.09
2019-05-02T12:56:52.855Z,100758.75
2019-05-02T12:59:22.519Z,100756.71
2019-05-02T13:01:51.875Z,100751.22
2019-05-02T13:04:22.784Z,100746.75
2019-05-02T13:06:53.081Z,100745.17
2019-05-02T13:09:23.361Z,100741.16
2019-05-02T13:11:53.316Z,100743.22
2019-05-02T13:14:23.652Z,100741.61
2019-05-02T13:17:00.739Z,100735.10
2019-05-02T13:19:36.523Z,100737.70
2019-05-02T13:22:03.871Z,100737.02
2019-05-02T13:24:34.155Z,100735.53
2019-05-02T13:27:04.446Z,100729.77
2019-05-02T13:29:33.150Z,100719.58
2019-05-02T13:32:08.838Z,100721.00
2019-05-02T13:34:57.164Z,100722.39
2019-05-02T13:37:26.611Z,100726.95
2019-05-02T13:40:02.941Z,100726.56
2019-05-02T13:42:33.587Z,100720.50
2019-05-02T13:45:06.435Z,100723.95
2019-05-02T13:47:35.009Z,100724.38
2019-05-02T13:50:04.928Z,100745.42
2019-05-02T13:52:33.525Z,100757.66
2019-05-02T13:55:02.321Z,100752.72
2019-05-02T13:57:35.040Z,100760.03
2019-05-02T14:00:02.323Z,100757.20
2019-05-02T14:02:36.643Z,100754.41
2019-05-02T14:05:07.609Z,100754.13
2019-05-02T14:07:36.309Z,100752.77
2019-05-02T14:10:08.677Z,100756.97
2019-05-02T14:12:44.708Z,100751.19
2019-05-02T14:15:14.932Z,100751.86
2019-05-02T14:17:43.469Z,100748.59
2019-05-02T14:20:13.763Z,100743.91
2019-05-02T14:22:42.608Z,100748.01
2019-05-02T14:25:12.312Z,100750.96
2019-05-02T14:27:42.186Z,100748.34
2019-05-02T14:30:12.189Z,100744.24
2019-05-02T14:32:42.466Z,100743.70
2019-05-02T14:35:28.501Z,100740.83
2019-05-02T14:38:09.881Z,100740.45
2019-05-02T14:40:42.518Z,100738.23
2019-05-02T14:43:13.022Z,100733.00
2019-05-02T14:45:43.735Z,100733.67
2019-05-02T14:48:19.314Z,100735.05
2019-05-02T14:50:45.639Z,100726.60
2019-05-02T14:53:16.760Z,100725.43
2019-05-02T14:55:45.723Z,100716.52
2019-05-02T14:58:14.422Z,100712.19
2019-05-02T15:00:47.813Z,100719.69
2019-05-02T15:03:19.210Z,100719.23
2019-05-02T15:05:45.375Z,100711.02
2019-05-02T15:08:13.911Z,100709.14
2019-05-02T15:10:50.664Z,100704.52
2019-05-02T15:13:12.927Z,100695.59
2019-05-02T15:15:43.495Z,100691.48
2019-05-02T15:18:15.818Z,100693.88
2019-05-02T15:20:42.433Z,100687.47
2019-05-02T15:23:14.506Z,100683.58
2019-05-02T15:25:42.350Z,100678.90
2019-05-02T15:28:13.174Z,100680.27
2019-05-02T15:30:47.861Z,100672.89
2019-05-02T15:33:17.049Z,100671.84
2019-05-02T15:35:47.033Z,100668.56
2019-05-02T15:38:24.227Z,100669.47
2019-05-02T15:40:50.466Z,100674.11
2019-05-02T15:43:16.177Z,100686.25
2019-05-02T15:45:45.384Z,100706.71
2019-05-02T15:48:21.524Z,100723.09
2019-05-02T15:50:51.653Z,100739.54
2019-05-02T15:53:25.181Z,100741.02
2019-05-02T15:55:53.777Z,100739.66
2019-05-02T15:58:23.676Z,100737.15
2019-05-02T16:00:56.599Z,100732.58
2019-05-02T16:03:26.399Z,100738.78
2019-05-02T16:05:55.019Z,100741.22
2019-05-02T16:08:23.663Z,100741.41
2019-05-02T16:10:53.603Z,100732.53
2019-05-02T16:13:22.364Z,100720.52
2019-05-02T16:15:52.576Z,100727.36
2019-05-02T16:18:21.616Z,100728.75
2019-05-02T16:21:04.488Z,100728.58
2019-05-02T16:23:29.890Z,100729.28
2019-05-02T16:25:56.809Z,100727.48
2019-05-02T16:28:22.955Z,100733.05
2019-05-02T16:30:53.225Z,100733.11
2019-05-02T16:33:21.871Z,100737.67
2019-05-02T16:35:53.489Z,100738.52
2019-05-02T16:38:22.236Z,100740.31
2019-05-02T16:40:52.513Z,100738.50
2019-05-02T16:43:22.231Z,100734.95
2019-05-02T16:45:52.580Z,100737.61
2019-05-02T16:48:23.602Z,100736.73
2019-05-02T16:50:51.552Z,100736.18
2019-05-02T16:53:22.642Z,100736.41
2019-05-02T16:55:50.449Z,100733.54
2019-05-02T16:58:20.120Z,100743.34
2019-05-02T17:00:48.890Z,100749.77
2019-05-02T17:03:22.011Z,100739.91
2019-05-02T17:05:49.343Z,100747.24
2019-05-02T17:08:22.661Z,100741.11
2019-05-02T17:10:56.754Z,100742.92
2019-05-02T17:13:27.316Z,100741.09
2019-05-02T17:15:53.488Z,100741.09
2019-05-02T17:18:22.783Z,100739.95
2019-05-02T17:20:53.422Z,100735.70
2019-05-02T17:23:22.335Z,100740.17
2019-05-02T17:25:52.192Z,100740.36
2019-05-02T17:28:22.323Z,100747.02
2019-05-02T17:30:52.499Z,100744.08
2019-05-02T17:33:21.765Z,100739.88
2019-05-02T17:35:52.236Z,100741.63
2019-05-02T17:38:25.074Z,100741.81
2019-05-02T17:40:53.865Z,100747.27
2019-05-02T17:43:22.694Z,100744.02
2019-05-02T17:45:51.485Z,100752.98
2019-05-02T17:48:20.646Z,100750.52
2019-05-02T17:51:02.974Z,100752.64
2019-05-02T17:53:33.536Z,100750.77
2019-05-02T17:56:02.142Z,100749.20
2019-05-02T17:58:31.736Z,100751.09
2019-05-02T18:01:02.591Z,100751.36
2019-05-02T18:03:35.196Z,100753.47
2019-05-02T18:06:02.692Z,100761.17
2019-05-02T18:08:32.286Z,100755.77
2019-05-02T18:11:02.779Z,100751.87
2019-05-02T18:13:33.746Z,100755.45
2019-05-02T18:16:02.770Z,100752.98
2019-05-02T18:18:32.007Z,100754.09
2019-05-02T18:21:02.046Z,100756.09
2019-05-02T18:23:32.270Z,100757.39
2019-05-02T18:26:02.731Z,100755.64
2019-05-02T18:28:31.302Z,100755.64
2019-05-02T18:31:02.598Z,100756.33
2019-05-02T18:33:30.286Z,100761.42
2019-05-02T18:35:58.918Z,100762.30
2019-05-02T18:38:27.514Z,100761.65
2019-05-02T18:41:00.248Z,100755.71
2019-05-02T18:43:26.785Z,100762.75
2019-05-02T18:45:58.290Z,100763.02
2019-05-02T18:48:25.783Z,100767.75
2019-05-02T18:50:54.441Z,100771.23
2019-05-02T18:53:26.992Z,100769.95
2019-05-02T18:55:56.819Z,100767.41
2019-05-02T18:58:23.795Z,100766.09
2019-05-02T19:00:52.664Z,100772.34
2019-05-02T19:03:22.964Z,100779.45
2019-05-02T19:05:57.148Z,100779.23
2019-05-02T19:08:29.078Z,100777.14
2019-05-02T19:11:04.691Z,100781.92
2019-05-02T19:13:23.039Z,100784.98
2019-05-02T19:15:53.472Z,100782.62
2019-05-02T19:18:22.180Z,100778.53
2019-05-02T19:20:57.471Z,100783.41
2019-05-02T19:23:24.718Z,100791.23
2019-05-02T19:25:53.428Z,100791.01
2019-05-02T19:28:38.420Z,100801.45
2019-05-02T19:31:07.213Z,100793.55
2019-05-02T19:33:37.474Z,100797.30
2019-05-02T19:36:06.234Z,100797.99
2019-05-02T19:38:34.976Z,100792.83
2019-05-02T19:41:08.725Z,100800.36
2019-05-02T19:43:34.975Z,100799.22
2019-05-02T19:46:03.959Z,100799.20
2019-05-02T19:48:36.920Z,100802.08
2019-05-02T19:51:02.964Z,100810.30
2019-05-02T19:53:32.497Z,100805.88
2019-05-02T19:56:03.064Z,100810.41
2019-05-02T19:58:36.788Z,100821.98
2019-05-02T20:01:03.152Z,100823.21
2019-05-02T20:03:32.359Z,100833.38
2019-05-02T20:06:05.795Z,100831.02
2019-05-02T20:08:32.566Z,100835.19
2019-05-02T20:11:02.176Z,100833.76
2019-05-02T20:13:32.597Z,100838.50
2019-05-02T20:16:09.057Z,100842.30
2019-05-02T20:18:43.819Z,100842.97
2019-05-02T20:21:13.667Z,100848.08
2019-05-02T20:23:40.019Z,100845.12
2019-05-02T20:26:09.332Z,100849.48
2019-05-02T20:28:38.886Z,100845.58
2019-05-02T20:31:07.513Z,100852.38
2019-05-02T20:33:36.227Z,100846.38
2019-05-02T20:36:05.266Z,100855.30
2019-05-02T20:38:33.807Z,100848.27
2019-05-02T20:41:02.899Z,100848.27
2019-05-02T20:43:33.039Z,100853.45
2019-05-02T20:46:02.621Z,100861.14
2019-05-02T20:48:32.261Z,100863.80
2019-05-02T20:51:02.651Z,100864.66
2019-05-02T20:53:34.040Z,100866.45
2019-05-02T20:56:02.033Z,100873.20
2019-05-02T20:58:32.479Z,100871.37
2019-05-02T21:01:06.257Z,100876.53
2019-05-02T21:03:32.051Z,100876.98
2019-05-02T21:06:04.823Z,100875.98
2019-05-02T21:08:43.242Z,100879.45
2019-05-02T21:11:12.472Z,100884.66
2019-05-02T21:13:41.836Z,100881.45
2019-05-02T21:16:12.443Z,100879.93
2019-05-02T21:18:42.243Z,100879.93
2019-05-02T21:21:12.676Z,100880.34
2019-05-02T21:23:47.019Z,100877.41
2019-05-02T21:26:11.948Z,100878.60
2019-05-02T21:28:42.686Z,100885.52
2019-05-02T21:31:12.124Z,100886.76
2019-05-02T21:33:42.743Z,100900.69
2019-05-02T21:36:12.040Z,100892.49
2019-05-02T21:38:42.544Z,100901.72
2019-05-02T21:41:12.192Z,100902.99
2019-05-02T21:43:42.487Z,100899.20
2019-05-02T21:46:11.352Z,100900.03
2019-05-02T21:48:41.834Z,100902.34
2019-05-02T21:51:12.197Z,100901.37
2019-05-02T21:53:56.126Z,100902.31
2019-05-02T21:56:26.375Z,100896.25
2019-05-02T21:59:12.326Z,100896.25
2019-05-02T22:01:52.080Z,100908.05
2019-05-02T22:04:22.384Z,100906.12
2019-05-02T22:06:52.148Z,100907.40
2019-05-02T22:09:23.113Z,100903.88
2019-05-02T22:11:52.010Z,100909.20
2019-05-02T22:14:22.271Z,100906.19
2019-05-02T22:16:52.903Z,100909.99
2019-05-02T22:19:21.614Z,100909.23
2019-05-02T22:21:52.268Z,100907.16
2019-05-02T22:24:20.548Z,100916.69
2019-05-02T22:26:49.114Z,100914.14
2019-05-02T22:29:17.717Z,100907.07
2019-05-02T22:31:46.328Z,100901.22
2019-05-02T22:34:14.791Z,100911.80
2019-05-02T22:36:43.971Z,100916.14
2019-05-02T22:39:14.430Z,100915.67
2019-05-02T22:41:43.076Z,100926.13
2019-05-02T22:44:12.447Z,100924.16
2019-05-02T22:46:43.448Z,100924.53
2019-05-02T22:49:14.612Z,100925.75
2019-05-02T22:51:43.899Z,100935.52
2019-05-02T22:54:27.020Z,100929.16
2019-05-02T22:56:44.577Z,100938.73
2019-05-02T22:59:13.171Z,100934.91
2019-05-02T23:01:42.315Z,100940.55
2019-05-02T23:04:12.817Z,100939.14
2019-05-02T23:06:43.806Z,100940.50
2019-05-02T23:09:12.760Z,100945.10
2019-05-02T23:11:42.592Z,100941.38
2019-05-02T23:14:11.419Z,100940.56
2019-05-02T23:16:42.254Z,100945.02
2019-05-02T23:19:12.336Z,100949.23
2019-05-02T23:21:42.302Z,100949.88
2019-05-02T23:24:14.647Z,100955.65
2019-05-02T23:26:51.766Z,100954.62
2019-05-02T23:29:22.454Z,100950.44
2019-05-02T23:31:51.781Z,100953.26
2019-05-02T23:34:23.325Z,100955.63
2019-05-02T23:36:52.172Z,100957.83
2019-05-02T23:39:21.007Z,100955.92
2019-05-02T23:41:49.697Z,100955.85
2019-05-02T23:44:18.273Z,100965.16
2019-05-02T23:46:46.856Z,100957.67
2019-05-02T23:49:15.508Z,100959.57
2019-05-02T23:51:44.115Z,100961.72
2019-05-02T23:54:13.136Z,100958.20
2019-05-02T23:56:43.135Z,100964.55
2019-05-02T23:59:12.185Z,100958.44
